Time;durP1;ratioP1;P1;durP2;ratioP2;P2;SDS_P1;SDS_P2;PMS_P1;PMS_P2;Temp;Humidity;BMP_temperature;BMP_pressure;BME280_temperature;BME280_humidity;BME280_pressure;Samples;Min_cycle;Max_cycle;Signal;HPM_P1;HPM_P2
2021/06/28 06:21:41;;;;;;;0.00;0.00;;;;;;;;;;5025007;28;20176;-66
2021/06/28 06:24:10;;;;;;;0.00;0.00;;;;;;;;;;5025349;28;20246;-65
2021/06/28 06:26:37;;;;;;;0.00;0.00;;;;;;;;;;5020045;28;20218;-66
2021/06/28 06:29:04;;;;;;;0.08;0.08;;;;;;;;;;5018863;28;20249;-65
2021/06/28 06:31:31;;;;;;;0.03;0.03;;;;;;;;;;5014345;28;20577;-66
2021/06/28 06:34:02;;;;;;;0.00;0.00;;;;;;;;;;5019068;28;20390;-66
2021/06/28 06:36:29;;;;;;;0.00;0.00;;;;;;;;;;5023956;28;20270;-66
2021/06/28 06:39:00;;;;;;;0.00;0.00;;;;;;;;;;5010585;28;20275;-66
2021/06/28 06:41:27;;;;;;;0.03;0.03;;;;;;;;;;4994610;28;20238;-66
2021/06/28 06:43:54;;;;;;;0.10;0.10;;;;;;;;;;5022590;28;20402;-66
2021/06/28 06:46:21;;;;;;;0.05;0.05;;;;;;;;;;5018013;28;20199;-66
2021/06/28 06:48:48;;;;;;;0.10;0.10;;;;;;;;;;5013208;28;20269;-66
2021/06/28 06:51:18;;;;;;;0.00;0.00;;;;;;;;;;5007408;28;20398;-66
2021/06/28 06:53:45;;;;;;;0.00;0.00;;;;;;;;;;5023983;28;20450;-66
2021/06/28 06:56:13;;;;;;;0.10;0.10;;;;;;;;;;5023157;28;20535;-66
2021/06/28 06:58:43;;;;;;;0.00;0.00;;;;;;;;;;5022692;28;20232;-67
2021/06/28 07:01:14;;;;;;;0.10;0.10;;;;;;;;;;5023120;28;20329;-67
2021/06/28 07:03:41;;;;;;;0.00;0.00;;;;;;;;;;5011936;28;20211;-66
2021/06/28 07:06:07;;;;;;;0.10;0.10;;;;;;;;;;5023676;28;20204;-66
2021/06/28 07:08:35;;;;;;;0.15;0.15;;;;;;;;;;5009661;28;20497;-66
2021/06/28 07:13:49;;;;;;;0.00;0.00;;;;;;;;;;5012276;28;20194;-67
2021/06/28 07:16:19;;;;;;;0.00;0.00;;;;;;;;;;5023948;28;20211;-67
2021/06/28 07:18:46;;;;;;;0.00;0.00;;;;;;;;;;5009986;28;20200;-67
2021/06/28 07:21:13;;;;;;;0.00;0.00;;;;;;;;;;5023701;28;20212;-66
2021/06/28 07:23:41;;;;;;;0.00;0.00;;;;;;;;;;5022782;28;20204;-66
2021/06/28 07:26:08;;;;;;;0.00;0.00;;;;;;;;;;5011707;28;20280;-67
2021/06/28 07:28:36;;;;;;;0.00;0.00;;;;;;;;;;5010528;28;20212;-66
2021/06/28 07:31:05;;;;;;;0.10;0.10;;;;;;;;;;5022421;28;20286;-66
2021/06/28 07:36:12;;;;;;;0.00;0.00;;;;;;;;;;5018225;28;20227;-67
2021/06/28 07:38:40;;;;;;;0.00;0.00;;;;;;;;;;5023584;28;20227;-67
2021/06/28 07:41:07;;;;;;;0.00;0.00;;;;;;;;;;5022371;28;20199;-66
2021/06/28 07:43:37;;;;;;;0.00;0.00;;;;;;;;;;5022562;28;20232;-66
2021/06/28 07:46:06;;;;;;;0.10;0.10;;;;;;;;;;5020897;28;20273;-66
2021/06/28 07:48:34;;;;;;;0.10;0.10;;;;;;;;;;5013841;28;20350;-67
2021/06/28 07:51:01;;;;;;;0.10;0.10;;;;;;;;;;5005754;28;20421;-67
2021/06/28 07:53:28;;;;;;;0.00;0.00;;;;;;;;;;5022423;28;20212;-67
2021/06/28 07:55:55;;;;;;;0.00;0.00;;;;;;;;;;5022136;28;20217;-67
2021/06/28 07:58:37;;;;;;;0.00;0.00;;;;;;;;;;5024114;28;20213;-67
2021/06/28 08:01:04;;;;;;;0.00;0.00;;;;;;;;;;5023669;28;20198;-67
2021/06/28 08:03:32;;;;;;;0.00;0.00;;;;;;;;;;5022015;28;20395;-68
2021/06/28 08:08:40;;;;;;;0.00;0.00;;;;;;;;;;5015596;28;20224;-67
2021/06/28 08:13:48;;;;;;;0.00;0.00;;;;;;;;;;4996119;28;20402;-67
2021/06/28 08:16:18;;;;;;;0.00;0.00;;;;;;;;;;5015130;28;20250;-68
2021/06/28 08:18:48;;;;;;;0.00;0.00;;;;;;;;;;5022351;28;20221;-67
2021/06/28 08:21:15;;;;;;;0.00;0.00;;;;;;;;;;5021332;28;20276;-67
2021/06/28 08:23:43;;;;;;;0.00;0.00;;;;;;;;;;5020972;28;20197;-67
2021/06/28 08:26:10;;;;;;;0.00;0.00;;;;;;;;;;5014248;28;20221;-67
2021/06/28 08:28:38;;;;;;;0.00;0.00;;;;;;;;;;5022707;28;20201;-67
2021/06/28 08:31:05;;;;;;;0.00;0.00;;;;;;;;;;5008517;28;20516;-67
2021/06/28 08:33:47;;;;;;;0.00;0.00;;;;;;;;;;5014308;28;20201;-67
2021/06/28 08:36:15;;;;;;;0.00;0.00;;;;;;;;;;5020496;28;20225;-67
2021/06/28 08:38:42;;;;;;;0.10;0.10;;;;;;;;;;5020900;28;20220;-67
2021/06/28 08:41:15;;;;;;;0.00;0.00;;;;;;;;;;5021993;28;20388;-68
2021/06/28 08:43:45;;;;;;;0.00;0.00;;;;;;;;;;5022459;28;20194;-67
2021/06/28 08:46:12;;;;;;;0.00;0.00;;;;;;;;;;5017376;28;20198;-67
2021/06/28 08:48:40;;;;;;;0.00;0.00;;;;;;;;;;5002518;28;20513;-69
2021/06/28 08:51:07;;;;;;;0.00;0.00;;;;;;;;;;5014544;28;20371;-66
2021/06/28 08:53:36;;;;;;;0.00;0.00;;;;;;;;;;5001312;28;20285;-67
2021/06/28 08:56:07;;;;;;;0.00;0.00;;;;;;;;;;5002642;28;20252;-67
2021/06/28 08:58:35;;;;;;;0.00;0.00;;;;;;;;;;5008408;28;20223;-68
2021/06/28 09:07:36;;;;;;;0.00;0.00;;;;;;;;;;5006650;28;20290;-67
2021/06/28 09:12:49;;;;;;;0.00;0.00;;;;;;;;;;5017567;28;20225;-66
2021/06/28 09:15:16;;;;;;;0.00;0.00;;;;;;;;;;5024763;28;20190;-67
2021/06/28 09:17:43;;;;;;;0.00;0.00;;;;;;;;;;5024470;28;20213;-67
2021/06/28 09:20:21;;;;;;;0.00;0.00;;;;;;;;;;5023579;28;20209;-67
2021/06/28 09:25:35;;;;;;;0.00;0.00;;;;;;;;;;5022293;28;20229;-67
2021/06/28 09:30:49;;;;;;;0.00;0.00;;;;;;;;;;4998811;28;20401;-67
2021/06/28 09:33:19;;;;;;;0.00;0.00;;;;;;;;;;4995095;28;20233;-67
2021/06/28 09:38:45;;;;;;;0.00;0.00;;;;;;;;;;5012034;28;20201;-67
2021/06/28 09:41:26;;;;;;;0.00;0.00;;;;;;;;;;5010316;28;20205;-69
2021/06/28 09:43:54;;;;;;;0.00;0.00;;;;;;;;;;5015422;28;20500;-68
2021/06/28 09:49:14;;;;;;;0.00;0.00;;;;;;;;;;5011478;28;20236;-67
2021/06/28 09:54:42;;;;;;;0.00;0.00;;;;;;;;;;5019528;28;20200;-67
2021/06/28 09:57:26;;;;;;;0.00;0.00;;;;;;;;;;5025503;28;20209;-67
2021/06/28 10:02:54;;;;;;;0.00;0.00;;;;;;;;;;5015558;28;20269;-68
2021/06/28 10:22:45;;;;;;;0.00;0.00;;;;;;;;;;5010097;28;20497;-67
2021/06/28 10:25:14;;;;;;;0.00;0.00;;;;;;;;;;5024615;28;20236;-68
2021/06/28 10:27:41;;;;;;;0.00;0.00;;;;;;;;;;5010974;28;20209;-68
2021/06/28 10:30:08;;;;;;;0.00;0.00;;;;;;;;;;5012510;28;20524;-68
2021/06/28 10:35:25;;;;;;;0.00;0.00;;;;;;;;;;4999882;28;20198;-68
2021/06/28 10:37:53;;;;;;;0.00;0.00;;;;;;;;;;5010024;28;20201;-67
2021/06/28 10:43:16;;;;;;;0.00;0.00;;;;;;;;;;5004036;28;20359;-67
2021/06/28 10:45:43;;;;;;;2.80;1.45;;;;;;;;;;4998014;28;20236;-68
2021/06/28 10:48:13;;;;;;;0.00;0.00;;;;;;;;;;5003871;28;20269;-68
2021/06/28 10:59:22;;;;;;;0.00;0.00;;;;;;;;;;5010665;28;20210;-67
2021/06/28 11:01:58;;;;;;;0.00;0.00;;;;;;;;;;5016181;28;20202;-67
2021/06/28 11:10:04;;;;;;;0.00;0.00;;;;;;;;;;5021505;28;20562;-67
2021/06/28 11:12:31;;;;;;;0.00;0.00;;;;;;;;;;5021351;28;20308;-67
2021/06/28 11:18:12;;;;;;;0.00;0.00;;;;;;;;;;5018301;28;20197;-68
2021/06/28 11:26:36;;;;;;;0.00;0.00;;;;;;;;;;5009979;28;20209;-68
2021/06/28 11:29:03;;;;;;;0.00;0.00;;;;;;;;;;4990799;28;20325;-67
2021/06/28 11:31:32;;;;;;;0.00;0.00;;;;;;;;;;5011418;28;20212;-68
2021/06/28 11:39:37;;;;;;;0.00;0.00;;;;;;;;;;4999037;28;20201;-68
2021/06/28 11:42:19;;;;;;;0.00;0.00;;;;;;;;;;5024581;28;20217;-68
2021/06/28 11:44:49;;;;;;;0.00;0.00;;;;;;;;;;5019673;28;20245;-68
2021/06/28 11:50:26;;;;;;;0.00;0.00;;;;;;;;;;5001459;28;20335;-68
2021/06/28 11:52:53;;;;;;;0.00;0.00;;;;;;;;;;5023727;28;20343;-67
2021/06/28 11:55:20;;;;;;;0.00;0.00;;;;;;;;;;5023286;28;20280;-69
2021/06/28 11:57:51;;;;;;;0.13;0.13;;;;;;;;;;5022581;28;20248;-67
2021/06/28 12:00:21;;;;;;;0.00;0.00;;;;;;;;;;5019751;28;20440;-67
2021/06/28 12:02:48;;;;;;;0.00;0.00;;;;;;;;;;5018399;28;20197;-69
2021/06/28 12:05:27;;;;;;;0.00;0.00;;;;;;;;;;5016678;28;20265;-68
2021/06/28 12:07:54;;;;;;;0.00;0.00;;;;;;;;;;5033300;28;20209;-68
2021/06/28 12:10:23;;;;;;;0.00;0.00;;;;;;;;;;5009504;28;20213;-68
2021/06/28 12:12:56;;;;;;;0.00;0.00;;;;;;;;;;5016913;28;20582;-67
2021/06/28 12:15:24;;;;;;;0.00;0.00;;;;;;;;;;5022218;28;20204;-68
2021/06/28 12:23:37;;;;;;;0.00;0.00;;;;;;;;;;4997288;28;20258;-67
2021/06/28 12:28:52;;;;;;;0.00;0.00;;;;;;;;;;5008190;28;20198;-66
2021/06/28 12:31:19;;;;;;;0.00;0.00;;;;;;;;;;5025427;28;20208;-67
2021/06/28 12:34:01;;;;;;;0.00;0.00;;;;;;;;;;5009876;28;20222;-68
2021/06/28 12:36:29;;;;;;;0.00;0.00;;;;;;;;;;5012548;28;20194;-66
2021/06/28 12:39:12;;;;;;;0.00;0.00;;;;;;;;;;5022705;28;20213;-66
2021/06/28 12:41:40;;;;;;;0.00;0.00;;;;;;;;;;5011512;28;20209;-66
2021/06/28 12:44:07;;;;;;;0.00;0.00;;;;;;;;;;5005059;28;20236;-68
2021/06/28 12:46:49;;;;;;;0.00;0.00;;;;;;;;;;5005551;28;20214;-68
2021/06/28 12:49:16;;;;;;;0.00;0.00;;;;;;;;;;4996226;28;20291;-69
2021/06/28 12:51:45;;;;;;;0.00;0.00;;;;;;;;;;5022577;28;20393;-68
2021/06/28 12:54:26;;;;;;;0.00;0.00;;;;;;;;;;5009516;28;20423;-67
2021/06/28 12:57:08;;;;;;;0.25;0.25;;;;;;;;;;5009158;28;20205;-67
2021/06/28 12:59:38;;;;;;;0.00;0.00;;;;;;;;;;5022531;28;20496;-67
2021/06/28 13:02:14;;;;;;;0.00;0.00;;;;;;;;;;5022318;28;20288;-67
2021/06/28 13:04:41;;;;;;;0.00;0.00;;;;;;;;;;5022266;28;20381;-67
2021/06/28 13:07:23;;;;;;;0.05;0.05;;;;;;;;;;5021014;28;20201;-67
2021/06/28 13:10:05;;;;;;;0.00;0.00;;;;;;;;;;5021958;28;20216;-67
2021/06/28 13:12:32;;;;;;;0.00;0.00;;;;;;;;;;5021866;28;20462;-68
2021/06/28 13:15:17;;;;;;;0.00;0.00;;;;;;;;;;5020609;28;20197;-67
2021/06/28 13:26:59;;;;;;;0.00;0.00;;;;;;;;;;5010183;28;20216;-67
2021/06/28 14:58:19;;;;;;;0.00;0.00;;;;;;;;;;5011755;28;20187;-68
2021/06/28 15:00:47;;;;;;;0.00;0.00;;;;;;;;;;5007718;28;20206;-66
2021/06/28 15:11:54;;;;;;;0.00;0.00;;;;;;;;;;5010482;28;20400;-67
2021/06/28 15:14:21;;;;;;;0.00;0.00;;;;;;;;;;5005442;28;20221;-67
2021/06/28 15:16:49;;;;;;;0.00;0.00;;;;;;;;;;5021922;28;20260;-68
2021/06/28 15:19:16;;;;;;;0.00;0.00;;;;;;;;;;5022203;28;20209;-67
2021/06/28 15:21:43;;;;;;;0.00;0.00;;;;;;;;;;5011985;28;20197;-67
2021/06/28 15:24:10;;;;;;;0.00;0.00;;;;;;;;;;5024234;28;20201;-67
2021/06/28 15:26:36;;;;;;;0.00;0.00;;;;;;;;;;5004128;28;20208;-67
2021/06/28 15:29:03;;;;;;;0.00;0.00;;;;;;;;;;5006886;28;20489;-68
2021/06/28 15:31:30;;;;;;;0.00;0.00;;;;;;;;;;5022114;28;20252;-68
2021/06/28 15:34:02;;;;;;;0.00;0.00;;;;;;;;;;5024219;28;20228;-67
2021/06/28 15:36:29;;;;;;;0.00;0.00;;;;;;;;;;5020650;28;20265;-68
2021/06/28 15:38:55;;;;;;;0.00;0.00;;;;;;;;;;5004758;28;20513;-67
2021/06/28 15:41:23;;;;;;;0.00;0.00;;;;;;;;;;5019340;28;20240;-69
2021/06/28 15:43:56;;;;;;;0.00;0.00;;;;;;;;;;5007495;28;20195;-69
2021/06/28 15:46:29;;;;;;;0.00;0.00;;;;;;;;;;5004926;28;20198;-66
2021/06/28 15:48:55;;;;;;;0.00;0.00;;;;;;;;;;5017551;28;20235;-68
2021/06/28 15:51:23;;;;;;;0.00;0.00;;;;;;;;;;5004737;28;20540;-67
2021/06/28 15:53:52;;;;;;;0.00;0.00;;;;;;;;;;5006010;28;20245;-67
2021/06/28 15:56:46;;;;;;;0.00;0.00;;;;;;;;;;5023593;28;20296;-68
2021/06/28 15:59:15;;;;;;;0.00;0.00;;;;;;;;;;5017420;28;20202;-67
2021/06/28 16:01:43;;;;;;;0.00;0.00;;;;;;;;;;5012212;28;20209;-67
2021/06/28 16:04:09;;;;;;;0.00;0.00;;;;;;;;;;5011487;28;20205;-69
2021/06/28 16:06:40;;;;;;;0.00;0.00;;;;;;;;;;5017044;28;20205;-68
2021/06/28 16:09:08;;;;;;;0.00;0.00;;;;;;;;;;5014674;28;20201;-66
2021/06/28 16:11:36;;;;;;;0.00;0.00;;;;;;;;;;5016720;28;20282;-69
2021/06/28 16:14:02;;;;;;;0.00;0.00;;;;;;;;;;5004968;28;20443;-68
2021/06/28 16:16:29;;;;;;;0.00;0.00;;;;;;;;;;5022084;28;20209;-67
2021/06/28 16:19:02;;;;;;;0.00;0.00;;;;;;;;;;5009714;28;20276;-68
2021/06/28 16:21:37;;;;;;;0.00;0.00;;;;;;;;;;5016340;28;20204;-68
2021/06/28 16:24:06;;;;;;;0.00;0.00;;;;;;;;;;5009849;28;20203;-71
2021/06/28 16:26:33;;;;;;;0.00;0.00;;;;;;;;;;5022874;28;20308;-66
2021/06/28 16:28:59;;;;;;;0.00;0.00;;;;;;;;;;5006124;28;20680;-67
2021/06/28 16:31:26;;;;;;;0.00;0.00;;;;;;;;;;5008883;28;20205;-68
2021/06/28 16:33:53;;;;;;;0.00;0.00;;;;;;;;;;5016124;28;20269;-67
2021/06/28 16:36:20;;;;;;;0.00;0.00;;;;;;;;;;5015063;28;20271;-67
2021/06/28 16:38:47;;;;;;;0.00;0.00;;;;;;;;;;5022303;28;20208;-67
2021/06/28 16:41:15;;;;;;;0.00;0.00;;;;;;;;;;5022236;28;20233;-68
2021/06/28 16:43:41;;;;;;;0.00;0.00;;;;;;;;;;5018996;28;20202;-69
2021/06/28 16:49:10;;;;;;;0.00;0.00;;;;;;;;;;5014394;28;20172;-67
2021/06/28 16:51:37;;;;;;;0.00;0.00;;;;;;;;;;5019684;28;20212;-68
2021/06/28 16:54:18;;;;;;;0.00;0.00;;;;;;;;;;5012844;28;20272;-67
2021/06/28 16:56:46;;;;;;;0.00;0.00;;;;;;;;;;5014817;28;20201;-68
2021/06/28 16:59:13;;;;;;;0.00;0.00;;;;;;;;;;5019262;28;20339;-68
2021/06/28 17:01:44;;;;;;;0.00;0.00;;;;;;;;;;5018613;28;20201;-68
2021/06/28 17:04:11;;;;;;;0.00;0.00;;;;;;;;;;5015349;28;20300;-67
2021/06/28 17:06:37;;;;;;;0.00;0.00;;;;;;;;;;5017702;28;20213;-68
2021/06/28 17:09:04;;;;;;;0.00;0.00;;;;;;;;;;5019887;28;20506;-67
2021/06/28 17:11:32;;;;;;;0.00;0.00;;;;;;;;;;5019996;28;20284;-67
2021/06/28 17:14:00;;;;;;;0.00;0.00;;;;;;;;;;5017121;28;20300;-67
2021/06/28 17:16:27;;;;;;;0.00;0.00;;;;;;;;;;5018097;28;20255;-67
2021/06/28 17:18:53;;;;;;;0.00;0.00;;;;;;;;;;5018612;28;20301;-66
2021/06/28 17:21:21;;;;;;;0.00;0.00;;;;;;;;;;5013744;28;20497;-67
2021/06/28 17:23:47;;;;;;;0.00;0.00;;;;;;;;;;5013451;28;20205;-70
2021/06/28 17:26:14;;;;;;;0.00;0.00;;;;;;;;;;5018948;28;20234;-68
2021/06/28 17:28:41;;;;;;;0.00;0.00;;;;;;;;;;5015890;28;20210;-67
2021/06/28 17:31:10;;;;;;;0.00;0.00;;;;;;;;;;5024195;28;20217;-67
2021/06/28 17:33:38;;;;;;;0.00;0.00;;;;;;;;;;5018658;28;20226;-67
2021/06/28 17:36:05;;;;;;;0.00;0.00;;;;;;;;;;5021872;28;20236;-68
2021/06/28 17:38:36;;;;;;;0.00;0.00;;;;;;;;;;5015122;28;20240;-66
2021/06/28 17:41:02;;;;;;;0.00;0.00;;;;;;;;;;5019727;28;20197;-67
2021/06/28 17:43:29;;;;;;;0.00;0.00;;;;;;;;;;5017448;28;20231;-68
2021/06/28 17:45:55;;;;;;;0.00;0.00;;;;;;;;;;5018484;28;20206;-72
2021/06/28 17:48:24;;;;;;;0.00;0.00;;;;;;;;;;5020298;28;20387;-72
2021/06/28 17:50:50;;;;;;;0.00;0.00;;;;;;;;;;5023625;28;20315;-72
2021/06/28 17:53:16;;;;;;;0.00;0.00;;;;;;;;;;5021836;28;20256;-70
2021/06/28 17:55:48;;;;;;;0.00;0.00;;;;;;;;;;5019843;28;20269;-71
2021/06/28 17:58:18;;;;;;;0.00;0.00;;;;;;;;;;5018796;28;20256;-71
2021/06/28 18:00:48;;;;;;;0.00;0.00;;;;;;;;;;5020061;28;20210;-71
2021/06/28 18:03:14;;;;;;;0.00;0.00;;;;;;;;;;5021067;28;20205;-71
2021/06/28 18:05:43;;;;;;;0.00;0.00;;;;;;;;;;5021394;28;20220;-69
2021/06/28 18:08:10;;;;;;;0.28;0.28;;;;;;;;;;5020282;28;20213;-66
2021/06/28 18:10:37;;;;;;;0.00;0.00;;;;;;;;;;5023984;28;20213;-68
2021/06/28 18:13:05;;;;;;;0.00;0.00;;;;;;;;;;5018320;28;20721;-68
2021/06/28 18:15:31;;;;;;;0.00;0.00;;;;;;;;;;5017642;28;20214;-69
2021/06/28 18:17:58;;;;;;;0.00;0.00;;;;;;;;;;5023078;28;20217;-69
2021/06/28 18:20:25;;;;;;;0.00;0.00;;;;;;;;;;5017191;28;20221;-68
2021/06/28 18:22:53;;;;;;;0.00;0.00;;;;;;;;;;5016808;28;20210;-68
2021/06/28 18:25:20;;;;;;;0.00;0.00;;;;;;;;;;5018327;28;20528;-68
2021/06/28 18:27:47;;;;;;;0.00;0.00;;;;;;;;;;5022521;28;20410;-69
2021/06/28 18:30:15;;;;;;;0.00;0.00;;;;;;;;;;5018764;28;20231;-69
2021/06/28 18:32:42;;;;;;;0.00;0.00;;;;;;;;;;5021482;28;20201;-65
2021/06/28 18:35:08;;;;;;;0.00;0.00;;;;;;;;;;5020617;28;20221;-68
2021/06/28 18:37:36;;;;;;;0.00;0.00;;;;;;;;;;5023344;28;20201;-68
2021/06/28 18:40:05;;;;;;;0.00;0.00;;;;;;;;;;5018846;28;20211;-67
2021/06/28 18:42:32;;;;;;;0.00;0.00;;;;;;;;;;5020982;28;20248;-68
2021/06/28 18:44:58;;;;;;;0.00;0.00;;;;;;;;;;5019223;28;20372;-67
2021/06/28 18:47:25;;;;;;;0.00;0.00;;;;;;;;;;5016900;28;20264;-67
2021/06/28 18:49:52;;;;;;;0.00;0.00;;;;;;;;;;5016395;28;20228;-66
2021/06/28 18:52:18;;;;;;;0.00;0.00;;;;;;;;;;5019951;28;20408;-67
2021/06/28 18:54:45;;;;;;;0.00;0.00;;;;;;;;;;5021423;28;20222;-68
2021/06/28 18:57:14;;;;;;;0.00;0.00;;;;;;;;;;5021112;28;20214;-68
2021/06/28 18:59:40;;;;;;;0.00;0.00;;;;;;;;;;5020117;28;20335;-67
2021/06/28 19:02:11;;;;;;;0.00;0.00;;;;;;;;;;5022592;28;20216;-68
2021/06/28 19:04:38;;;;;;;0.00;0.00;;;;;;;;;;5015064;28;20194;-67
2021/06/28 19:07:05;;;;;;;0.00;0.00;;;;;;;;;;5019940;28;20201;-68
2021/06/28 19:09:32;;;;;;;0.00;0.00;;;;;;;;;;5019453;28;20497;-68
2021/06/28 19:12:00;;;;;;;0.00;0.00;;;;;;;;;;5022322;28;20276;-68
2021/06/28 19:14:28;;;;;;;0.00;0.00;;;;;;;;;;5018970;28;20264;-68
2021/06/28 19:16:55;;;;;;;0.00;0.00;;;;;;;;;;5020726;28;20222;-67
2021/06/28 19:19:22;;;;;;;0.00;0.00;;;;;;;;;;5020278;28;20217;-67
2021/06/28 19:21:49;;;;;;;0.00;0.00;;;;;;;;;;5020256;28;20214;-67
2021/06/28 19:24:17;;;;;;;0.00;0.00;;;;;;;;;;5019964;28;20312;-67
2021/06/28 19:26:45;;;;;;;0.00;0.00;;;;;;;;;;5021573;28;20400;-67
2021/06/28 19:29:13;;;;;;;0.00;0.00;;;;;;;;;;5019472;28;20205;-67
2021/06/28 19:31:41;;;;;;;0.00;0.00;;;;;;;;;;5020012;28;20201;-68
2021/06/28 19:34:09;;;;;;;0.00;0.00;;;;;;;;;;5014893;28;20222;-67
2021/06/28 19:36:36;;;;;;;0.00;0.00;;;;;;;;;;5020668;28;20208;-67
2021/06/28 19:39:02;;;;;;;0.00;0.00;;;;;;;;;;5016382;28;20277;-68
2021/06/28 19:41:33;;;;;;;0.00;0.00;;;;;;;;;;5017232;28;20272;-68
2021/06/28 19:44:04;;;;;;;0.00;0.00;;;;;;;;;;5020009;28;20377;-68
2021/06/28 19:46:31;;;;;;;0.00;0.00;;;;;;;;;;5021474;28;20206;-70
2021/06/28 19:49:02;;;;;;;0.00;0.00;;;;;;;;;;5020621;28;20489;-70
2021/06/28 19:51:47;;;;;;;0.00;0.00;;;;;;;;;;5018183;28;20205;-67
2021/06/28 19:54:14;;;;;;;0.00;0.00;;;;;;;;;;5015712;28;20318;-68
2021/06/28 19:56:43;;;;;;;0.00;0.00;;;;;;;;;;5016168;28;20273;-67
2021/06/28 19:59:10;;;;;;;0.00;0.00;;;;;;;;;;5015850;28;20212;-69
2021/06/28 20:01:36;;;;;;;0.00;0.00;;;;;;;;;;5016808;28;20346;-70
2021/06/28 20:04:04;;;;;;;0.00;0.00;;;;;;;;;;5020528;28;20212;-69
2021/06/28 20:06:31;;;;;;;0.00;0.00;;;;;;;;;;5019518;28;20206;-69
2021/06/28 20:08:58;;;;;;;0.00;0.00;;;;;;;;;;5021845;28;20566;-69
2021/06/28 20:11:25;;;;;;;0.00;0.00;;;;;;;;;;5021255;28;20432;-69
2021/06/28 20:13:53;;;;;;;0.00;0.00;;;;;;;;;;5021462;28;20249;-68
2021/06/28 20:16:32;;;;;;;0.00;0.00;;;;;;;;;;5021423;28;20213;-69
2021/06/28 20:18:58;;;;;;;0.00;0.00;;;;;;;;;;5019243;28;20198;-69
2021/06/28 20:21:29;;;;;;;0.00;0.00;;;;;;;;;;5022129;28;20260;-68
2021/06/28 20:23:56;;;;;;;0.00;0.00;;;;;;;;;;5020288;28;20512;-68
2021/06/28 20:26:23;;;;;;;0.00;0.00;;;;;;;;;;5017610;28;20225;-68
2021/06/28 20:28:51;;;;;;;0.00;0.00;;;;;;;;;;5019797;28;20269;-70
2021/06/28 20:31:18;;;;;;;0.00;0.00;;;;;;;;;;5014651;28;20485;-68
2021/06/28 20:33:48;;;;;;;0.00;0.00;;;;;;;;;;5016426;28;20532;-68
2021/06/28 20:36:14;;;;;;;0.00;0.00;;;;;;;;;;5021209;28;20419;-69
2021/06/28 20:38:43;;;;;;;0.00;0.00;;;;;;;;;;5010871;28;20201;-69
2021/06/28 20:41:10;;;;;;;0.00;0.00;;;;;;;;;;5019321;28;20252;-70
2021/06/28 20:43:37;;;;;;;0.00;0.00;;;;;;;;;;5015521;28;20213;-69
2021/06/28 20:46:05;;;;;;;0.00;0.00;;;;;;;;;;5020067;28;20209;-69
2021/06/28 20:48:33;;;;;;;0.00;0.00;;;;;;;;;;5020118;28;20489;-70
2021/06/28 20:51:00;;;;;;;0.00;0.00;;;;;;;;;;5014297;28;20244;-67
2021/06/28 20:53:27;;;;;;;0.00;0.00;;;;;;;;;;5018204;28;20211;-69
2021/06/28 20:55:56;;;;;;;0.00;0.00;;;;;;;;;;5015909;28;20520;-69
2021/06/28 20:58:23;;;;;;;0.00;0.00;;;;;;;;;;5022756;28;20228;-69
2021/06/28 21:00:50;;;;;;;0.00;0.00;;;;;;;;;;5012085;28;20209;-69
2021/06/28 21:03:17;;;;;;;0.00;0.00;;;;;;;;;;5015656;28;20520;-70
2021/06/28 21:05:44;;;;;;;0.00;0.00;;;;;;;;;;5006061;28;20262;-70
2021/06/28 21:08:10;;;;;;;0.00;0.00;;;;;;;;;;5020342;28;20268;-71
2021/06/28 21:10:38;;;;;;;0.00;0.00;;;;;;;;;;5012973;28;20205;-74
2021/06/28 21:13:06;;;;;;;0.00;0.00;;;;;;;;;;5021615;28;20236;-72
2021/06/28 21:15:33;;;;;;;0.00;0.00;;;;;;;;;;5017236;28;20240;-72
2021/06/28 21:18:00;;;;;;;0.00;0.00;;;;;;;;;;5017413;28;20264;-72
2021/06/28 21:20:31;;;;;;;0.00;0.00;;;;;;;;;;5022100;28;20201;-73
2021/06/28 21:22:57;;;;;;;0.00;0.00;;;;;;;;;;5013805;28;20521;-74
2021/06/28 21:25:24;;;;;;;0.00;0.00;;;;;;;;;;5014828;28;20226;-72
2021/06/28 21:27:51;;;;;;;0.00;0.00;;;;;;;;;;5019771;28;20401;-72
2021/06/28 21:30:20;;;;;;;0.00;0.00;;;;;;;;;;5014425;28;20244;-73
2021/06/28 21:32:48;;;;;;;0.00;0.00;;;;;;;;;;5011444;28;20510;-72
2021/06/28 21:35:15;;;;;;;0.00;0.00;;;;;;;;;;5016430;28;20433;-73
2021/06/28 21:37:43;;;;;;;0.00;0.00;;;;;;;;;;5017566;28;20515;-72
2021/06/28 21:40:10;;;;;;;0.00;0.00;;;;;;;;;;5021759;28;20211;-72
2021/06/28 21:42:40;;;;;;;0.00;0.00;;;;;;;;;;5020242;28;20386;-72
2021/06/28 21:45:08;;;;;;;0.00;0.00;;;;;;;;;;5014053;28;20278;-72
2021/06/28 21:47:37;;;;;;;0.00;0.00;;;;;;;;;;5017684;28;20193;-72
2021/06/28 21:50:22;;;;;;;0.00;0.00;;;;;;;;;;5025921;28;20267;-71
2021/06/28 21:52:49;;;;;;;0.00;0.00;;;;;;;;;;5021329;28;20202;-71
2021/06/28 21:55:15;;;;;;;0.00;0.00;;;;;;;;;;5005414;28;20218;-72
2021/06/28 21:57:42;;;;;;;0.00;0.00;;;;;;;;;;5013595;28;20535;-72
2021/06/28 22:00:09;;;;;;;0.00;0.00;;;;;;;;;;5025913;28;20202;-72
2021/06/28 22:02:37;;;;;;;0.00;0.00;;;;;;;;;;5025123;28;20201;-72
2021/06/28 22:08:06;;;;;;;0.00;0.00;;;;;;;;;;5017940;28;20231;-70
2021/06/28 22:10:33;;;;;;;0.00;0.00;;;;;;;;;;5019227;28;20221;-72
2021/06/28 22:12:59;;;;;;;0.00;0.00;;;;;;;;;;5017640;28;20564;-72
2021/06/28 22:15:26;;;;;;;0.00;0.00;;;;;;;;;;5024593;28;20265;-72
2021/06/28 22:18:11;;;;;;;0.00;0.00;;;;;;;;;;5015028;28;20389;-72
2021/06/28 22:20:39;;;;;;;0.00;0.00;;;;;;;;;;5024437;28;20202;-72
2021/06/28 22:23:09;;;;;;;0.00;0.00;;;;;;;;;;5025081;28;20368;-72
2021/06/28 22:25:35;;;;;;;0.00;0.00;;;;;;;;;;5024096;28;20225;-72
2021/06/28 22:28:01;;;;;;;0.00;0.00;;;;;;;;;;5025079;28;20503;-72
2021/06/28 22:30:31;;;;;;;0.00;0.00;;;;;;;;;;5025177;28;20485;-72
2021/06/28 22:32:59;;;;;;;0.00;0.00;;;;;;;;;;5024724;28;20225;-71
2021/06/28 22:35:25;;;;;;;0.00;0.00;;;;;;;;;;5024880;28;20229;-72
2021/06/28 22:38:03;;;;;;;0.00;0.00;;;;;;;;;;5023729;28;20401;-72
2021/06/28 22:40:48;;;;;;;0.00;0.00;;;;;;;;;;5024230;28;20201;-71
2021/06/28 22:43:14;;;;;;;0.00;0.00;;;;;;;;;;5024249;28;20210;-71
2021/06/28 22:45:44;;;;;;;0.00;0.00;;;;;;;;;;5024454;28;20206;-71
2021/06/28 22:48:11;;;;;;;0.00;0.00;;;;;;;;;;5015995;28;20222;-71
2021/06/28 22:50:37;;;;;;;0.00;0.00;;;;;;;;;;5018656;28;20394;-69
2021/06/28 22:56:19;;;;;;;0.00;0.00;;;;;;;;;;5021251;28;20263;-70
2021/06/28 22:58:52;;;;;;;0.00;0.00;;;;;;;;;;5023845;28;20205;-71
2021/06/28 23:01:19;;;;;;;0.00;0.00;;;;;;;;;;5024123;28;20229;-70
2021/06/28 23:06:48;;;;;;;0.00;0.00;;;;;;;;;;5021129;28;20421;-71
2021/06/28 23:09:15;;;;;;;0.00;0.00;;;;;;;;;;5013944;28;20344;-72
2021/06/28 23:11:47;;;;;;;0.00;0.00;;;;;;;;;;5024258;28;20205;-71
2021/06/28 23:14:16;;;;;;;0.00;0.00;;;;;;;;;;5015082;28;20229;-71
2021/06/28 23:17:01;;;;;;;0.00;0.00;;;;;;;;;;5014792;28;20279;-71
2021/06/28 23:19:27;;;;;;;0.00;0.00;;;;;;;;;;5004102;28;20210;-72
2021/06/28 23:22:12;;;;;;;0.00;0.00;;;;;;;;;;5017773;28;20213;-71
2021/06/28 23:24:39;;;;;;;0.00;0.00;;;;;;;;;;5012608;28;20288;-71
2021/06/28 23:27:07;;;;;;;0.00;0.00;;;;;;;;;;5022572;28;20268;-70
2021/06/28 23:29:38;;;;;;;0.00;0.00;;;;;;;;;;5017846;28;20297;-72
2021/06/28 23:32:05;;;;;;;0.00;0.00;;;;;;;;;;5010315;28;20217;-72
2021/06/28 23:34:31;;;;;;;0.00;0.00;;;;;;;;;;5023305;28;20205;-72
2021/06/28 23:36:58;;;;;;;0.10;0.10;;;;;;;;;;5005450;28;20206;-72
2021/06/28 23:39:24;;;;;;;0.00;0.00;;;;;;;;;;5014559;28;20481;-71
2021/06/28 23:41:52;;;;;;;0.03;0.03;;;;;;;;;;5021034;28;20493;-71
2021/06/28 23:44:20;;;;;;;0.00;0.00;;;;;;;;;;5003893;28;20342;-71
2021/06/28 23:46:48;;;;;;;0.00;0.00;;;;;;;;;;5018913;28;20370;-71
2021/06/28 23:49:14;;;;;;;0.00;0.00;;;;;;;;;;5023863;28;20209;-71
2021/06/28 23:51:40;;;;;;;0.00;0.00;;;;;;;;;;5022701;28;20206;-71
2021/06/28 23:54:07;;;;;;;0.00;0.00;;;;;;;;;;5018585;28;20212;-71
2021/06/28 23:56:34;;;;;;;0.00;0.00;;;;;;;;;;5014873;28;20236;-71
